createdAt,value
2022-09-01T00:00:50.646Z,75
2022-09-01T00:03:23.381Z,75
2022-09-01T00:05:56.515Z,75
2022-09-01T00:08:29.437Z,75
2022-09-01T00:11:02.343Z,76
2022-09-01T00:13:35.568Z,75
2022-09-01T00:16:08.726Z,75
2022-09-01T00:18:41.427Z,74
2022-09-01T00:21:13.578Z,75
2022-09-01T00:23:46.746Z,76
2022-09-01T00:26:18.858Z,75
2022-09-01T00:28:51.653Z,75
2022-09-01T00:31:24.802Z,75
2022-09-01T00:33:56.538Z,75
2022-09-01T00:36:28.769Z,74
2022-09-01T00:39:04.934Z,74
2022-09-01T00:41:37.497Z,74
2022-09-01T00:44:09.955Z,74
2022-09-01T00:46:56.761Z,73
2022-09-01T00:49:27.511Z,73
2022-09-01T00:52:00.269Z,73
2022-09-01T00:54:33.153Z,73
2022-09-01T00:57:05.577Z,73
2022-09-01T00:59:38.318Z,72
2022-09-01T01:02:09.502Z,72
2022-09-01T01:04:41.927Z,74
2022-09-01T01:07:14.403Z,74
2022-09-01T01:09:47.116Z,74
2022-09-01T01:12:19.915Z,74
2022-09-01T01:14:52.660Z,74
2022-09-01T01:17:25.172Z,73
2022-09-01T01:23:02.750Z,75
2022-09-01T01:25:35.808Z,74
2022-09-01T01:28:08.046Z,74
2022-09-01T01:30:40.877Z,74
2022-09-01T01:33:13.521Z,74
2022-09-01T01:35:46.600Z,74
2022-09-01T01:38:23.123Z,73
2022-09-01T01:40:54.672Z,73
2022-09-01T01:43:27.347Z,73
2022-09-01T01:46:00.198Z,72
2022-09-01T01:48:32.255Z,72
2022-09-01T01:51:04.711Z,72
2022-09-01T01:53:40.469Z,73
2022-09-01T01:56:12.816Z,72
2022-09-01T01:58:44.095Z,73
2022-09-01T02:01:16.496Z,72
2022-09-01T02:03:49.443Z,73
2022-09-01T02:06:20.349Z,73
2022-09-01T02:08:53.128Z,73
2022-09-01T02:11:26.741Z,73
2022-09-01T02:13:59.589Z,73
2022-09-01T02:16:32.355Z,73
2022-09-01T02:19:03.201Z,73
2022-09-01T02:21:35.999Z,73
2022-09-01T02:24:08.957Z,74
2022-09-01T02:26:41.880Z,74
2022-09-01T02:29:15.649Z,73
2022-09-01T02:31:48.158Z,73
2022-09-01T02:34:21.932Z,73
2022-09-01T02:36:54.557Z,73
2022-09-01T02:39:27.530Z,73
2022-09-01T02:42:00.051Z,73
2022-09-01T02:44:32.379Z,74
2022-09-01T02:47:05.441Z,73
2022-09-01T02:49:38.253Z,74
2022-09-01T02:52:14.788Z,73
2022-09-01T02:54:46.707Z,73
2022-09-01T02:57:18.840Z,73
2022-09-01T02:59:50.841Z,73
2022-09-01T03:02:23.072Z,73
2022-09-01T03:04:56.594Z,74
2022-09-01T03:07:28.910Z,74
2022-09-01T03:10:01.499Z,74
2022-09-01T03:12:34.092Z,74
2022-09-01T03:15:13.842Z,74
2022-09-01T03:17:44.889Z,74
2022-09-01T03:20:17.320Z,74
2022-09-01T03:22:49.951Z,73
2022-09-01T03:25:22.364Z,74
2022-09-01T03:27:54.754Z,74
2022-09-01T03:30:27.361Z,74
2022-09-01T03:32:59.859Z,74
2022-09-01T03:35:32.753Z,74
2022-09-01T03:38:04.940Z,74
2022-09-01T03:40:38.100Z,74
2022-09-01T03:43:10.422Z,74
2022-09-01T03:45:43.481Z,74
2022-09-01T03:48:15.861Z,74
2022-09-01T03:50:48.379Z,74
2022-09-01T03:53:20.899Z,75
2022-09-01T03:55:53.987Z,75
2022-09-01T03:58:27.776Z,75
2022-09-01T04:00:59.973Z,74
2022-09-01T04:03:32.521Z,75
2022-09-01T04:06:06.003Z,74
2022-09-01T04:08:38.482Z,74
2022-09-01T04:11:11.968Z,74
2022-09-01T04:13:44.878Z,74
2022-09-01T04:16:17.861Z,74
2022-09-01T04:18:50.398Z,73
2022-09-01T04:21:22.893Z,73
2022-09-01T04:23:56.102Z,74
2022-09-01T04:26:29.048Z,73
2022-09-01T04:29:04.800Z,73
2022-09-01T04:31:38.399Z,74
2022-09-01T04:34:11.288Z,74
2022-09-01T04:36:44.363Z,74
2022-09-01T04:39:17.887Z,74
2022-09-01T04:41:51.200Z,74
2022-09-01T04:44:24.463Z,74
2022-09-01T04:46:57.427Z,75
2022-09-01T04:49:30.066Z,75
2022-09-01T04:52:03.387Z,75
2022-09-01T04:54:37.143Z,75
2022-09-01T04:57:10.279Z,75
2022-09-01T04:59:43.445Z,76
2022-09-01T05:02:17.090Z,75
2022-09-01T05:04:50.385Z,76
2022-09-01T05:07:22.755Z,76
2022-09-01T05:10:02.270Z,76
2022-09-01T05:12:33.923Z,77
2022-09-01T05:15:06.690Z,77
2022-09-01T05:17:38.048Z,76
2022-09-01T05:20:10.900Z,76
2022-09-01T05:22:43.827Z,76
2022-09-01T05:25:17.120Z,76
2022-09-01T05:27:50.323Z,76
2022-09-01T05:30:23.055Z,77
2022-09-01T05:32:56.561Z,76
2022-09-01T05:35:33.759Z,75
2022-09-01T05:38:05.681Z,75
2022-09-01T05:40:38.795Z,75
2022-09-01T05:43:12.203Z,75
2022-09-01T05:46:08.003Z,75
2022-09-01T05:48:39.071Z,74
2022-09-01T05:51:51.940Z,74
2022-09-01T05:54:23.739Z,74
2022-09-01T05:56:56.119Z,73
2022-09-01T05:59:29.712Z,74
2022-09-01T06:02:03.325Z,74
2022-09-01T06:04:36.293Z,74
2022-09-01T06:07:17.073Z,74
2022-09-01T06:09:48.348Z,74
2022-09-01T06:12:21.387Z,74
2022-09-01T06:14:54.167Z,73
2022-09-01T06:17:27.009Z,73
2022-09-01T06:20:00.755Z,73
2022-09-01T06:22:34.023Z,73
2022-09-01T06:25:07.038Z,73
2022-09-01T06:27:39.977Z,73
2022-09-01T06:30:12.687Z,73
2022-09-01T06:32:46.531Z,73
2022-09-01T06:35:18.951Z,73
2022-09-01T06:37:52.018Z,73
2022-09-01T06:40:25.465Z,73
2022-09-01T06:42:58.599Z,73
2022-09-01T06:45:34.751Z,73
2022-09-01T06:48:06.829Z,74
2022-09-01T06:51:22.579Z,74
2022-09-01T06:53:52.919Z,73
2022-09-01T06:56:32.962Z,72
2022-09-01T06:59:04.659Z,71
2022-09-01T07:01:41.290Z,70
2022-09-01T07:04:14.592Z,69
2022-09-01T07:08:06.427Z,69
2022-09-01T07:12:26.608Z,67
2022-09-01T07:43:12.077Z,69
2022-09-01T07:46:37.772Z,69
2022-09-01T07:51:36.688Z,71
2022-09-01T07:54:07.665Z,70
2022-09-01T07:56:41.271Z,73
2022-09-01T07:59:16.318Z,72
2022-09-01T08:01:47.902Z,73
2022-09-01T08:04:20.889Z,74
2022-09-01T08:06:54.083Z,74
2022-09-01T08:09:45.000Z,75
2022-09-01T08:12:15.796Z,75
2022-09-01T08:14:47.980Z,75
2022-09-01T08:17:53.545Z,76
2022-09-01T08:20:24.603Z,76
2022-09-01T08:22:57.543Z,76
2022-09-01T08:25:30.916Z,76
2022-09-01T08:28:04.099Z,76
2022-09-01T08:30:36.804Z,77
2022-09-01T08:33:14.270Z,77
2022-09-01T08:35:44.381Z,77
2022-09-01T08:38:17.688Z,77
2022-09-01T08:40:50.609Z,76
2022-09-01T08:43:27.587Z,77
2022-09-01T08:45:59.897Z,75
2022-09-01T08:49:45.049Z,76
2022-09-01T08:52:16.400Z,75
2022-09-01T08:54:49.193Z,77
2022-09-01T08:57:21.479Z,76
2022-09-01T08:59:54.719Z,77
2022-09-01T09:02:28.444Z,78
2022-09-01T09:05:01.066Z,78
2022-09-01T09:07:33.675Z,79
2022-09-01T09:10:06.782Z,78
2022-09-01T09:12:50.300Z,77
2022-09-01T09:15:21.409Z,77
2022-09-01T09:18:01.436Z,76
2022-09-01T09:20:33.690Z,77
2022-09-01T09:23:07.089Z,78
2022-09-01T09:25:39.934Z,78
2022-09-01T09:28:13.488Z,76
2022-09-01T09:30:45.842Z,76
2022-09-01T09:33:55.125Z,77
2022-09-01T09:36:26.289Z,77
2022-09-01T09:39:01.627Z,78
2022-09-01T09:41:36.777Z,78
2022-09-01T09:44:12.131Z,78
2022-09-01T09:46:45.538Z,79
2022-09-01T09:49:18.378Z,78
2022-09-01T09:52:06.898Z,78
2022-09-01T09:54:39.390Z,78
2022-09-01T09:57:12.622Z,77
2022-09-01T10:00:02.458Z,77
2022-09-01T10:02:34.647Z,76
2022-09-01T10:05:06.671Z,76
2022-09-01T10:07:39.740Z,77
2022-09-01T10:10:14.216Z,77
2022-09-01T10:12:47.198Z,76
2022-09-01T10:15:20.246Z,77
2022-09-01T10:18:21.875Z,76
2022-09-01T10:21:05.203Z,75
2022-09-01T10:23:41.309Z,75
2022-09-01T10:26:15.640Z,75
2022-09-01T10:28:51.373Z,75
2022-09-01T10:31:34.402Z,77
2022-09-01T10:34:06.442Z,77
2022-09-01T10:36:39.214Z,77
2022-09-01T10:39:11.363Z,77
2022-09-01T10:41:44.137Z,77
2022-09-01T10:44:19.721Z,77
2022-09-01T10:47:06.250Z,77
2022-09-01T10:49:39.190Z,77
2022-09-01T10:52:16.872Z,77
2022-09-01T10:54:56.450Z,77
2022-09-01T10:57:32.054Z,77
2022-09-01T11:00:06.405Z,77
2022-09-01T11:03:52.228Z,76
2022-09-01T11:06:23.282Z,75
2022-09-01T11:08:58.586Z,76
2022-09-01T11:11:30.873Z,75
2022-09-01T11:14:03.872Z,75
2022-09-01T11:16:53.512Z,75
2022-09-01T11:19:28.557Z,76
2022-09-01T11:22:00.059Z,74
2022-09-01T11:24:33.430Z,75
2022-09-01T11:27:06.217Z,76
2022-09-01T11:29:39.970Z,76
2022-09-01T11:32:20.089Z,75
2022-09-01T11:34:51.373Z,75
2022-09-01T11:37:23.744Z,75
2022-09-01T11:39:59.562Z,76
2022-09-01T11:42:32.611Z,75
2022-09-01T11:45:06.609Z,76
2022-09-01T11:47:39.698Z,76
2022-09-01T11:50:12.982Z,76
2022-09-01T11:52:45.993Z,76
2022-09-01T11:55:18.590Z,75
2022-09-01T11:57:51.179Z,75
2022-09-01T12:00:23.898Z,75
2022-09-01T12:02:56.296Z,75
2022-09-01T12:05:29.020Z,75
2022-09-01T12:08:01.771Z,75
2022-09-01T12:10:33.937Z,75
2022-09-01T12:13:06.414Z,75
2022-09-01T12:16:19.897Z,75
2022-09-01T12:18:50.372Z,75
2022-09-01T12:21:23.081Z,74
2022-09-01T12:23:55.593Z,75
2022-09-01T12:26:28.348Z,76
2022-09-01T12:29:00.769Z,76
2022-09-01T12:31:33.946Z,76
2022-09-01T12:34:07.371Z,75
2022-09-01T12:36:40.016Z,75
2022-09-01T12:39:12.905Z,75
2022-09-01T12:41:45.728Z,75
2022-09-01T12:44:18.625Z,75
2022-09-01T12:46:51.202Z,74
2022-09-01T12:49:23.612Z,75
2022-09-01T12:51:56.576Z,75
2022-09-01T12:54:29.455Z,76
2022-09-01T12:57:02.568Z,77
2022-09-01T12:59:38.701Z,77
2022-09-01T13:02:11.519Z,77
2022-09-01T13:04:43.628Z,76
2022-09-01T13:07:16.163Z,77
2022-09-01T13:09:48.557Z,76
2022-09-01T13:12:20.479Z,75
2022-09-01T13:14:53.185Z,76
2022-09-01T13:17:25.939Z,77
2022-09-01T13:19:58.539Z,77
2022-09-01T13:22:31.036Z,76
2022-09-01T13:25:04.384Z,76
2022-09-01T13:27:37.089Z,75
2022-09-01T13:30:09.229Z,76
2022-09-01T13:34:21.506Z,76
2022-09-01T13:36:54.617Z,74
2022-09-01T13:39:26.538Z,74
2022-09-01T13:41:58.422Z,74
2022-09-01T13:44:31.472Z,76
2022-09-01T13:47:34.337Z,75
2022-09-01T13:50:21.522Z,74
2022-09-01T13:53:44.016Z,75
2022-09-01T13:56:16.391Z,74
2022-09-01T13:58:49.289Z,74
2022-09-01T14:01:21.248Z,74
2022-09-01T14:04:01.686Z,75
2022-09-01T14:06:32.765Z,76
2022-09-01T14:09:05.368Z,76
2022-09-01T14:11:39.065Z,76
2022-09-01T14:14:11.212Z,75
2022-09-01T14:16:44.328Z,74
2022-09-01T14:19:16.003Z,74
2022-09-01T14:21:49.484Z,76
2022-09-01T14:24:21.408Z,77
2022-09-01T14:26:54.007Z,77
2022-09-01T14:29:27.149Z,77
2022-09-01T14:31:59.478Z,77
2022-09-01T14:34:32.037Z,77
2022-09-01T14:37:04.530Z,77
2022-09-01T14:39:37.007Z,78
2022-09-01T14:42:09.614Z,78
2022-09-01T14:44:41.546Z,78
2022-09-01T14:47:21.623Z,77
2022-09-01T14:49:52.144Z,78
2022-09-01T14:52:24.865Z,76
2022-09-01T14:54:57.564Z,76
2022-09-01T14:57:39.238Z,76
2022-09-01T15:00:10.192Z,77
2022-09-01T15:02:42.588Z,76
2022-09-01T15:05:15.727Z,77
2022-09-01T15:07:48.087Z,75
2022-09-01T20:21:58.416Z,68
2022-09-01T20:24:29.485Z,69
2022-09-01T20:27:03.160Z,69
2022-09-01T20:29:35.535Z,71
2022-09-01T20:32:07.720Z,72
2022-09-01T20:34:40.721Z,72
2022-09-01T20:37:12.703Z,73
2022-09-01T20:39:45.377Z,73
2022-09-01T20:42:17.869Z,73
2022-09-01T20:44:50.881Z,74
2022-09-01T20:47:23.261Z,74
2022-09-01T20:49:55.630Z,74
2022-09-01T20:52:28.629Z,74
2022-09-01T20:55:01.952Z,75
2022-09-01T20:57:34.971Z,75
2022-09-01T21:00:07.756Z,75
2022-09-01T21:02:40.675Z,75
2022-09-01T21:05:13.258Z,75
2022-09-01T21:07:45.609Z,75
2022-09-01T21:10:18.483Z,75
2022-09-01T21:12:50.765Z,75
2022-09-01T21:15:23.369Z,75
2022-09-01T21:17:56.119Z,75
2022-09-01T21:20:28.823Z,76
2022-09-01T21:23:07.515Z,76
2022-09-01T21:25:41.715Z,75
2022-09-01T21:28:14.746Z,76
2022-09-01T21:30:47.751Z,76
2022-09-01T21:33:20.189Z,77
2022-09-01T21:35:52.709Z,76
2022-09-01T21:38:24.967Z,76
2022-09-01T21:40:57.651Z,76
2022-09-01T21:43:29.558Z,76
2022-09-01T21:46:03.085Z,77
2022-09-01T21:48:35.344Z,77
2022-09-01T21:51:07.625Z,77
2022-09-01T21:53:39.696Z,77
2022-09-01T21:56:12.204Z,77
2022-09-01T21:58:51.216Z,77
2022-09-01T22:01:22.882Z,77
2022-09-01T22:03:55.678Z,77
2022-09-01T22:06:27.561Z,77
2022-09-01T22:08:59.973Z,77
2022-09-01T22:11:32.695Z,77
2022-09-01T22:14:05.487Z,77
2022-09-01T22:16:38.422Z,77
2022-09-01T22:19:10.031Z,77
2022-09-01T22:21:42.629Z,77
2022-09-01T22:24:20.302Z,77
2022-09-01T22:26:52.144Z,77
2022-09-01T22:29:24.784Z,77
2022-09-01T22:31:57.438Z,77
2022-09-01T22:34:29.834Z,77
2022-09-01T22:37:02.385Z,77
2022-09-01T22:39:35.374Z,77
2022-09-01T22:42:07.946Z,77
2022-09-01T22:44:40.619Z,77
2022-09-01T22:47:14.547Z,77
2022-09-01T22:49:47.240Z,76
2022-09-01T22:52:19.794Z,76
2022-09-01T22:54:53.004Z,77
2022-09-01T22:57:25.383Z,77
2022-09-01T22:59:58.156Z,78
2022-09-01T23:02:30.369Z,78
2022-09-01T23:05:06.969Z,78
2022-09-01T23:07:40.768Z,78
2022-09-01T23:10:12.537Z,78
2022-09-01T23:12:45.606Z,78
2022-09-01T23:15:17.945Z,77
2022-09-01T23:17:50.772Z,78
2022-09-01T23:20:24.002Z,78
2022-09-01T23:22:56.488Z,78
2022-09-01T23:25:30.030Z,77
2022-09-01T23:28:02.265Z,77
2022-09-01T23:30:35.313Z,78
2022-09-01T23:33:08.121Z,78
2022-09-01T23:35:40.885Z,78
2022-09-01T23:38:13.396Z,79
2022-09-01T23:40:46.586Z,79
2022-09-01T23:43:19.559Z,79
2022-09-01T23:45:52.554Z,79
2022-09-01T23:48:25.196Z,79
2022-09-01T23:50:57.864Z,79
2022-09-01T23:53:30.845Z,79
2022-09-01T23:56:03.522Z,78
2022-09-01T23:58:36.069Z,79
